sensor_id;sensor_type;location;lat;lon;timestamp;P1;durP1;ratioP1;P2;durP2;ratioP2
55655;SDS011;41530;52.382;5.270;2024-02-16T00:02:00;2.60;;;1.00;;
55655;SDS011;41530;52.382;5.270;2024-02-16T00:04:28;1.77;;;1.20;;
55655;SDS011;41530;52.382;5.270;2024-02-16T00:06:55;3.17;;;1.23;;
55655;SDS011;41530;52.382;5.270;2024-02-16T00:09:22;1.75;;;1.20;;
55655;SDS011;41530;52.382;5.270;2024-02-16T00:11:48;1.38;;;0.80;;
55655;SDS011;41530;52.382;5.270;2024-02-16T00:14:17;2.47;;;1.00;;
55655;SDS011;41530;52.382;5.270;2024-02-16T00:16:44;2.28;;;1.20;;
55655;SDS011;41530;52.382;5.270;2024-02-16T00:19:10;1.45;;;1.10;;
55655;SDS011;41530;52.382;5.270;2024-02-16T00:21:37;3.15;;;1.00;;
55655;SDS011;41530;52.382;5.270;2024-02-16T00:24:08;2.83;;;0.93;;
55655;SDS011;41530;52.382;5.270;2024-02-16T00:26:35;1.30;;;1.20;;
55655;SDS011;41530;52.382;5.270;2024-02-16T00:29:03;3.30;;;1.17;;
55655;SDS011;41530;52.382;5.270;2024-02-16T00:31:31;2.08;;;1.17;;
55655;SDS011;41530;52.382;5.270;2024-02-16T00:33:57;1.48;;;1.05;;
55655;SDS011;41530;52.382;5.270;2024-02-16T00:36:26;2.35;;;1.20;;
55655;SDS011;41530;52.382;5.270;2024-02-16T00:38:53;1.58;;;1.17;;
55655;SDS011;41530;52.382;5.270;2024-02-16T00:41:20;2.97;;;1.33;;
55655;SDS011;41530;52.382;5.270;2024-02-16T00:43:49;1.90;;;1.27;;
55655;SDS011;41530;52.382;5.270;2024-02-16T00:46:17;1.70;;;1.30;;
55655;SDS011;41530;52.382;5.270;2024-02-16T00:48:44;2.80;;;1.23;;
55655;SDS011;41530;52.382;5.270;2024-02-16T00:51:13;2.05;;;1.20;;
55655;SDS011;41530;52.382;5.270;2024-02-16T00:53:42;4.43;;;1.25;;
55655;SDS011;41530;52.382;5.270;2024-02-16T00:56:08;1.60;;;1.00;;
55655;SDS011;41530;52.382;5.270;2024-02-16T00:58:35;3.17;;;1.42;;
55655;SDS011;41530;52.382;5.270;2024-02-16T01:01:03;2.05;;;1.38;;
55655;SDS011;41530;52.382;5.270;2024-02-16T01:03:30;1.45;;;1.15;;
55655;SDS011;41530;52.382;5.270;2024-02-16T01:05:57;2.17;;;1.20;;
55655;SDS011;41530;52.382;5.270;2024-02-16T01:08:24;1.98;;;1.23;;
55655;SDS011;41530;52.382;5.270;2024-02-16T01:10:50;3.67;;;1.20;;
55655;SDS011;41530;52.382;5.270;2024-02-16T01:13:17;3.80;;;1.30;;
55655;SDS011;41530;52.382;5.270;2024-02-16T01:15:44;2.38;;;1.30;;
55655;SDS011;41530;52.382;5.270;2024-02-16T01:18:13;1.02;;;0.93;;
55655;SDS011;41530;52.382;5.270;2024-02-16T01:20:42;3.88;;;1.50;;
55655;SDS011;41530;52.382;5.270;2024-02-16T01:23:10;2.30;;;1.10;;
55655;SDS011;41530;52.382;5.270;2024-02-16T01:25:37;2.10;;;1.27;;
55655;SDS011;41530;52.382;5.270;2024-02-16T01:28:04;1.95;;;1.10;;
55655;SDS011;41530;52.382;5.270;2024-02-16T01:30:31;1.65;;;1.27;;
55655;SDS011;41530;52.382;5.270;2024-02-16T01:32:57;3.15;;;1.30;;
55655;SDS011;41530;52.382;5.270;2024-02-16T01:35:24;2.88;;;1.00;;
55655;SDS011;41530;52.382;5.270;2024-02-16T01:37:51;1.98;;;1.20;;
55655;SDS011;41530;52.382;5.270;2024-02-16T01:40:17;2.22;;;1.20;;
55655;SDS011;41530;52.382;5.270;2024-02-16T01:42:44;3.53;;;1.30;;
55655;SDS011;41530;52.382;5.270;2024-02-16T01:45:11;1.67;;;1.30;;
55655;SDS011;41530;52.382;5.270;2024-02-16T01:47:41;1.35;;;1.10;;
55655;SDS011;41530;52.382;5.270;2024-02-16T01:50:10;1.90;;;1.20;;
55655;SDS011;41530;52.382;5.270;2024-02-16T01:52:37;2.03;;;1.13;;
55655;SDS011;41530;52.382;5.270;2024-02-16T01:55:04;2.53;;;1.63;;
55655;SDS011;41530;52.382;5.270;2024-02-16T01:57:45;2.60;;;1.40;;
55655;SDS011;41530;52.382;5.270;2024-02-16T02:00:13;1.92;;;1.35;;
55655;SDS011;41530;52.382;5.270;2024-02-16T02:02:45;2.10;;;1.27;;
55655;SDS011;41530;52.382;5.270;2024-02-16T02:05:13;1.55;;;1.15;;
55655;SDS011;41530;52.382;5.270;2024-02-16T02:07:41;2.38;;;1.30;;
55655;SDS011;41530;52.382;5.270;2024-02-16T02:10:09;1.48;;;1.15;;
55655;SDS011;41530;52.382;5.270;2024-02-16T02:12:40;3.90;;;1.73;;
55655;SDS011;41530;52.382;5.270;2024-02-16T02:15:09;2.08;;;1.27;;
55655;SDS011;41530;52.382;5.270;2024-02-16T02:17:35;2.00;;;1.30;;
55655;SDS011;41530;52.382;5.270;2024-02-16T02:20:02;3.28;;;1.40;;
55655;SDS011;41530;52.382;5.270;2024-02-16T02:22:37;3.60;;;1.13;;
55655;SDS011;41530;52.382;5.270;2024-02-16T02:25:04;1.30;;;1.17;;
55655;SDS011;41530;52.382;5.270;2024-02-16T02:27:31;3.17;;;2.28;;
55655;SDS011;41530;52.382;5.270;2024-02-16T02:29:58;1.63;;;1.52;;
55655;SDS011;41530;52.382;5.270;2024-02-16T02:32:25;1.73;;;1.10;;
55655;SDS011;41530;52.382;5.270;2024-02-16T02:34:51;2.38;;;1.30;;
55655;SDS011;41530;52.382;5.270;2024-02-16T02:37:18;1.92;;;1.35;;
55655;SDS011;41530;52.382;5.270;2024-02-16T02:39:44;2.67;;;1.20;;
55655;SDS011;41530;52.382;5.270;2024-02-16T02:42:11;2.05;;;1.20;;
55655;SDS011;41530;52.382;5.270;2024-02-16T02:44:38;2.33;;;1.35;;
55655;SDS011;41530;52.382;5.270;2024-02-16T02:47:05;2.90;;;1.33;;
55655;SDS011;41530;52.382;5.270;2024-02-16T02:49:32;2.35;;;1.08;;
55655;SDS011;41530;52.382;5.270;2024-02-16T02:52:01;2.45;;;1.30;;
55655;SDS011;41530;52.382;5.270;2024-02-16T02:54:28;2.47;;;1.20;;
55655;SDS011;41530;52.382;5.270;2024-02-16T02:56:55;4.75;;;1.40;;
55655;SDS011;41530;52.382;5.270;2024-02-16T02:59:21;1.77;;;1.20;;
55655;SDS011;41530;52.382;5.270;2024-02-16T03:01:48;1.40;;;1.10;;
55655;SDS011;41530;52.382;5.270;2024-02-16T03:04:15;2.25;;;1.40;;
55655;SDS011;41530;52.382;5.270;2024-02-16T03:06:41;1.90;;;1.23;;
55655;SDS011;41530;52.382;5.270;2024-02-16T03:09:10;1.55;;;1.20;;
55655;SDS011;41530;52.382;5.270;2024-02-16T03:11:39;2.33;;;1.20;;
55655;SDS011;41530;52.382;5.270;2024-02-16T03:14:06;1.73;;;1.23;;
55655;SDS011;41530;52.382;5.270;2024-02-16T03:16:32;1.60;;;1.23;;
55655;SDS011;41530;52.382;5.270;2024-02-16T03:18:59;1.60;;;1.10;;
55655;SDS011;41530;52.382;5.270;2024-02-16T03:21:26;6.22;;;1.48;;
55655;SDS011;41530;52.382;5.270;2024-02-16T03:23:53;2.13;;;1.45;;
55655;SDS011;41530;52.382;5.270;2024-02-16T03:26:20;2.03;;;0.93;;
55655;SDS011;41530;52.382;5.270;2024-02-16T03:28:47;4.00;;;1.08;;
55655;SDS011;41530;52.382;5.270;2024-02-16T03:31:16;2.20;;;1.25;;
55655;SDS011;41530;52.382;5.270;2024-02-16T03:33:43;2.53;;;1.30;;
55655;SDS011;41530;52.382;5.270;2024-02-16T03:36:10;1.20;;;1.10;;
55655;SDS011;41530;52.382;5.270;2024-02-16T03:38:42;4.32;;;1.02;;
55655;SDS011;41530;52.382;5.270;2024-02-16T03:41:19;1.40;;;1.13;;
55655;SDS011;41530;52.382;5.270;2024-02-16T03:43:47;1.88;;;1.40;;
55655;SDS011;41530;52.382;5.270;2024-02-16T03:46:14;2.20;;;1.25;;
55655;SDS011;41530;52.382;5.270;2024-02-16T03:48:41;3.60;;;1.42;;
55655;SDS011;41530;52.382;5.270;2024-02-16T03:51:08;2.47;;;1.20;;
55655;SDS011;41530;52.382;5.270;2024-02-16T03:53:35;2.83;;;1.35;;
55655;SDS011;41530;52.382;5.270;2024-02-16T03:56:01;1.45;;;1.10;;
55655;SDS011;41530;52.382;5.270;2024-02-16T03:58:28;2.10;;;1.45;;
55655;SDS011;41530;52.382;5.270;2024-02-16T04:00:57;3.20;;;1.55;;
55655;SDS011;41530;52.382;5.270;2024-02-16T04:03:27;2.20;;;1.27;;
55655;SDS011;41530;52.382;5.270;2024-02-16T04:05:54;1.27;;;1.10;;
55655;SDS011;41530;52.382;5.270;2024-02-16T04:08:20;2.45;;;1.38;;
55655;SDS011;41530;52.382;5.270;2024-02-16T04:10:47;2.17;;;1.20;;
55655;SDS011;41530;52.382;5.270;2024-02-16T04:13:14;1.85;;;1.33;;
55655;SDS011;41530;52.382;5.270;2024-02-16T04:15:40;1.90;;;1.30;;
55655;SDS011;41530;52.382;5.270;2024-02-16T04:18:07;1.75;;;1.27;;
55655;SDS011;41530;52.382;5.270;2024-02-16T04:20:35;1.88;;;1.33;;
55655;SDS011;41530;52.382;5.270;2024-02-16T04:23:04;1.88;;;1.10;;
55655;SDS011;41530;52.382;5.270;2024-02-16T04:25:33;2.28;;;1.60;;
55655;SDS011;41530;52.382;5.270;2024-02-16T04:28:00;1.45;;;1.30;;
55655;SDS011;41530;52.382;5.270;2024-02-16T04:30:26;1.95;;;1.25;;
55655;SDS011;41530;52.382;5.270;2024-02-16T04:32:53;1.27;;;1.17;;
55655;SDS011;41530;52.382;5.270;2024-02-16T04:35:20;2.53;;;1.42;;
55655;SDS011;41530;52.382;5.270;2024-02-16T04:37:47;2.95;;;1.20;;
55655;SDS011;41530;52.382;5.270;2024-02-16T04:40:13;3.55;;;1.67;;
55655;SDS011;41530;52.382;5.270;2024-02-16T04:42:40;1.20;;;1.00;;
55655;SDS011;41530;52.382;5.270;2024-02-16T04:45:10;2.33;;;1.65;;
55655;SDS011;41530;52.382;5.270;2024-02-16T04:47:37;5.57;;;1.48;;
55655;SDS011;41530;52.382;5.270;2024-02-16T04:50:05;2.47;;;1.42;;
55655;SDS011;41530;52.382;5.270;2024-02-16T04:52:36;1.73;;;1.30;;
55655;SDS011;41530;52.382;5.270;2024-02-16T04:55:04;1.77;;;1.25;;
55655;SDS011;41530;52.382;5.270;2024-02-16T04:57:33;2.95;;;1.42;;
55655;SDS011;41530;52.382;5.270;2024-02-16T05:00:00;1.63;;;1.20;;
55655;SDS011;41530;52.382;5.270;2024-02-16T05:02:26;2.15;;;1.30;;
55655;SDS011;41530;52.382;5.270;2024-02-16T05:04:53;1.23;;;1.10;;
55655;SDS011;41530;52.382;5.270;2024-02-16T05:07:20;4.03;;;1.30;;
55655;SDS011;41530;52.382;5.270;2024-02-16T05:09:47;1.52;;;1.20;;
55655;SDS011;41530;52.382;5.270;2024-02-16T05:12:16;2.10;;;1.45;;
55655;SDS011;41530;52.382;5.270;2024-02-16T05:14:47;2.05;;;1.40;;
55655;SDS011;41530;52.382;5.270;2024-02-16T05:17:15;2.80;;;1.30;;
55655;SDS011;41530;52.382;5.270;2024-02-16T05:19:42;1.92;;;1.30;;
55655;SDS011;41530;52.382;5.270;2024-02-16T05:22:09;2.35;;;1.30;;
55655;SDS011;41530;52.382;5.270;2024-02-16T05:24:36;3.78;;;1.20;;
55655;SDS011;41530;52.382;5.270;2024-02-16T05:27:03;1.88;;;1.38;;
55655;SDS011;41530;52.382;5.270;2024-02-16T05:29:30;2.15;;;1.20;;
55655;SDS011;41530;52.382;5.270;2024-02-16T05:31:56;1.30;;;1.20;;
55655;SDS011;41530;52.382;5.270;2024-02-16T05:34:23;1.70;;;1.40;;
55655;SDS011;41530;52.382;5.270;2024-02-16T05:36:50;2.00;;;1.48;;
55655;SDS011;41530;52.382;5.270;2024-02-16T05:39:16;1.75;;;1.35;;
55655;SDS011;41530;52.382;5.270;2024-02-16T05:41:47;1.42;;;1.10;;
55655;SDS011;41530;52.382;5.270;2024-02-16T05:44:14;1.95;;;1.27;;
55655;SDS011;41530;52.382;5.270;2024-02-16T05:46:41;1.70;;;1.23;;
55655;SDS011;41530;52.382;5.270;2024-02-16T05:49:07;1.50;;;1.08;;
55655;SDS011;41530;52.382;5.270;2024-02-16T05:51:36;2.17;;;1.50;;
55655;SDS011;41530;52.382;5.270;2024-02-16T05:54:05;1.80;;;1.20;;
55655;SDS011;41530;52.382;5.270;2024-02-16T05:56:34;1.55;;;1.33;;
55655;SDS011;41530;52.382;5.270;2024-02-16T05:59:03;1.73;;;1.30;;
55655;SDS011;41530;52.382;5.270;2024-02-16T06:01:29;1.40;;;1.00;;
55655;SDS011;41530;52.382;5.270;2024-02-16T06:03:56;2.08;;;1.40;;
55655;SDS011;41530;52.382;5.270;2024-02-16T06:06:23;2.03;;;1.40;;
55655;SDS011;41530;52.382;5.270;2024-02-16T06:08:50;2.22;;;1.40;;
55655;SDS011;41530;52.382;5.270;2024-02-16T06:11:16;2.20;;;1.40;;
55655;SDS011;41530;52.382;5.270;2024-02-16T06:13:43;3.95;;;1.58;;
55655;SDS011;41530;52.382;5.270;2024-02-16T06:16:10;2.80;;;1.40;;
55655;SDS011;41530;52.382;5.270;2024-02-16T06:18:36;1.55;;;1.15;;
55655;SDS011;41530;52.382;5.270;2024-02-16T06:21:03;1.65;;;1.25;;
55655;SDS011;41530;52.382;5.270;2024-02-16T06:23:30;2.28;;;1.25;;
55655;SDS011;41530;52.382;5.270;2024-02-16T06:25:57;2.40;;;1.30;;
55655;SDS011;41530;52.382;5.270;2024-02-16T06:28:24;1.30;;;1.15;;
55655;SDS011;41530;52.382;5.270;2024-02-16T06:30:50;7.35;;;1.20;;
55655;SDS011;41530;52.382;5.270;2024-02-16T06:33:17;1.70;;;1.27;;
55655;SDS011;41530;52.382;5.270;2024-02-16T06:35:44;1.27;;;1.02;;
55655;SDS011;41530;52.382;5.270;2024-02-16T06:38:13;1.85;;;1.23;;
55655;SDS011;41530;52.382;5.270;2024-02-16T06:40:39;2.70;;;1.30;;
55655;SDS011;41530;52.382;5.270;2024-02-16T06:43:06;1.95;;;1.50;;
55655;SDS011;41530;52.382;5.270;2024-02-16T06:45:33;1.85;;;1.35;;
55655;SDS011;41530;52.382;5.270;2024-02-16T06:48:00;3.65;;;1.10;;
55655;SDS011;41530;52.382;5.270;2024-02-16T06:50:26;1.55;;;1.30;;
55655;SDS011;41530;52.382;5.270;2024-02-16T06:52:53;3.88;;;1.20;;
55655;SDS011;41530;52.382;5.270;2024-02-16T06:55:21;1.92;;;1.20;;
55655;SDS011;41530;52.382;5.270;2024-02-16T06:57:48;2.03;;;1.30;;
55655;SDS011;41530;52.382;5.270;2024-02-16T07:00:15;3.25;;;1.35;;
55655;SDS011;41530;52.382;5.270;2024-02-16T07:02:42;2.35;;;1.30;;
55655;SDS011;41530;52.382;5.270;2024-02-16T07:05:09;1.83;;;1.15;;
55655;SDS011;41530;52.382;5.270;2024-02-16T07:07:35;7.05;;;1.35;;
55655;SDS011;41530;52.382;5.270;2024-02-16T07:10:02;3.95;;;1.20;;
55655;SDS011;41530;52.382;5.270;2024-02-16T07:12:31;2.30;;;1.40;;
55655;SDS011;41530;52.382;5.270;2024-02-16T07:15:00;1.33;;;1.08;;
55655;SDS011;41530;52.382;5.270;2024-02-16T07:17:27;3.42;;;1.40;;
55655;SDS011;41530;52.382;5.270;2024-02-16T07:19:53;2.22;;;1.27;;
55655;SDS011;41530;52.382;5.270;2024-02-16T07:22:20;2.55;;;1.30;;
55655;SDS011;41530;52.382;5.270;2024-02-16T07:24:47;1.20;;;1.10;;
55655;SDS011;41530;52.382;5.270;2024-02-16T07:27:14;3.92;;;2.08;;
55655;SDS011;41530;52.382;5.270;2024-02-16T07:29:41;9.82;;;1.60;;
55655;SDS011;41530;52.382;5.270;2024-02-16T07:32:07;3.63;;;1.60;;
55655;SDS011;41530;52.382;5.270;2024-02-16T07:34:34;3.67;;;1.60;;
55655;SDS011;41530;52.382;5.270;2024-02-16T07:37:01;1.88;;;1.50;;
55655;SDS011;41530;52.382;5.270;2024-02-16T07:39:27;4.93;;;1.40;;
55655;SDS011;41530;52.382;5.270;2024-02-16T07:41:55;3.10;;;1.58;;
55655;SDS011;41530;52.382;5.270;2024-02-16T07:44:22;4.13;;;1.45;;
55655;SDS011;41530;52.382;5.270;2024-02-16T07:46:48;2.92;;;1.50;;
55655;SDS011;41530;52.382;5.270;2024-02-16T07:49:17;3.13;;;1.52;;
55655;SDS011;41530;52.382;5.270;2024-02-16T07:51:43;4.28;;;1.92;;
55655;SDS011;41530;52.382;5.270;2024-02-16T07:54:10;2.92;;;1.90;;
55655;SDS011;41530;52.382;5.270;2024-02-16T07:56:37;4.10;;;1.90;;
55655;SDS011;41530;52.382;5.270;2024-02-16T07:59:04;4.38;;;2.47;;
55655;SDS011;41530;52.382;5.270;2024-02-16T08:01:30;6.50;;;1.95;;
55655;SDS011;41530;52.382;5.270;2024-02-16T08:03:57;2.20;;;1.63;;
55655;SDS011;41530;52.382;5.270;2024-02-16T08:06:26;4.20;;;1.90;;
55655;SDS011;41530;52.382;5.270;2024-02-16T08:08:54;3.05;;;2.10;;
55655;SDS011;41530;52.382;5.270;2024-02-16T08:11:22;4.68;;;2.17;;
55655;SDS011;41530;52.382;5.270;2024-02-16T08:13:49;5.75;;;2.00;;
55655;SDS011;41530;52.382;5.270;2024-02-16T08:16:16;4.13;;;2.55;;
55655;SDS011;41530;52.382;5.270;2024-02-16T08:18:45;3.75;;;1.92;;
55655;SDS011;41530;52.382;5.270;2024-02-16T08:21:12;4.97;;;2.30;;
55655;SDS011;41530;52.382;5.270;2024-02-16T08:23:39;4.70;;;2.45;;
55655;SDS011;41530;52.382;5.270;2024-02-16T08:26:05;4.53;;;1.92;;
55655;SDS011;41530;52.382;5.270;2024-02-16T08:28:32;5.45;;;2.00;;
55655;SDS011;41530;52.382;5.270;2024-02-16T08:30:59;5.05;;;2.22;;
55655;SDS011;41530;52.382;5.270;2024-02-16T08:33:25;5.43;;;1.95;;
55655;SDS011;41530;52.382;5.270;2024-02-16T08:35:52;4.28;;;1.98;;
55655;SDS011;41530;52.382;5.270;2024-02-16T08:38:19;6.63;;;2.30;;
55655;SDS011;41530;52.382;5.270;2024-02-16T08:40:46;3.65;;;2.08;;
55655;SDS011;41530;52.382;5.270;2024-02-16T08:43:14;4.95;;;2.08;;
55655;SDS011;41530;52.382;5.270;2024-02-16T08:45:41;3.35;;;2.13;;
55655;SDS011;41530;52.382;5.270;2024-02-16T08:48:07;4.78;;;2.53;;
55655;SDS011;41530;52.382;5.270;2024-02-16T08:50:34;8.27;;;2.17;;
55655;SDS011;41530;52.382;5.270;2024-02-16T08:53:01;4.57;;;2.45;;
55655;SDS011;41530;52.382;5.270;2024-02-16T08:55:28;4.00;;;2.22;;
55655;SDS011;41530;52.382;5.270;2024-02-16T08:57:54;4.25;;;2.50;;
55655;SDS011;41530;52.382;5.270;2024-02-16T09:00:21;5.63;;;2.85;;
55655;SDS011;41530;52.382;5.270;2024-02-16T09:02:49;5.97;;;2.67;;
55655;SDS011;41530;52.382;5.270;2024-02-16T09:05:16;4.82;;;2.53;;
55655;SDS011;41530;52.382;5.270;2024-02-16T09:07:43;3.58;;;2.22;;
55655;SDS011;41530;52.382;5.270;2024-02-16T09:10:10;3.88;;;2.47;;
55655;SDS011;41530;52.382;5.270;2024-02-16T09:12:36;6.72;;;2.60;;
55655;SDS011;41530;52.382;5.270;2024-02-16T09:15:03;3.40;;;2.45;;
55655;SDS011;41530;52.382;5.270;2024-02-16T09:17:32;4.72;;;2.33;;
55655;SDS011;41530;52.382;5.270;2024-02-16T09:19:59;3.83;;;2.30;;
55655;SDS011;41530;52.382;5.270;2024-02-16T09:22:25;3.30;;;2.08;;
55655;SDS011;41530;52.382;5.270;2024-02-16T09:24:55;6.40;;;2.40;;
55655;SDS011;41530;52.382;5.270;2024-02-16T09:27:26;4.30;;;2.38;;
55655;SDS011;41530;52.382;5.270;2024-02-16T09:29:54;4.75;;;2.40;;
55655;SDS011;41530;52.382;5.270;2024-02-16T09:32:21;6.03;;;2.50;;
55655;SDS011;41530;52.382;5.270;2024-02-16T09:34:49;5.80;;;2.20;;
55655;SDS011;41530;52.382;5.270;2024-02-16T09:37:17;5.50;;;2.53;;
55655;SDS011;41530;52.382;5.270;2024-02-16T09:39:44;5.95;;;2.30;;
55655;SDS011;41530;52.382;5.270;2024-02-16T09:42:10;5.22;;;2.42;;
55655;SDS011;41530;52.382;5.270;2024-02-16T09:44:41;7.40;;;2.53;;
55655;SDS011;41530;52.382;5.270;2024-02-16T09:47:08;4.10;;;2.25;;
55655;SDS011;41530;52.382;5.270;2024-02-16T09:49:38;5.05;;;2.15;;
55655;SDS011;41530;52.382;5.270;2024-02-16T09:52:09;5.00;;;2.50;;
55655;SDS011;41530;52.382;5.270;2024-02-16T09:54:39;4.45;;;2.15;;
55655;SDS011;41530;52.382;5.270;2024-02-16T09:57:06;5.00;;;2.22;;
55655;SDS011;41530;52.382;5.270;2024-02-16T09:59:33;4.07;;;2.30;;
55655;SDS011;41530;52.382;5.270;2024-02-16T10:02:00;4.80;;;2.58;;
55655;SDS011;41530;52.382;5.270;2024-02-16T10:04:28;4.22;;;2.40;;
55655;SDS011;41530;52.382;5.270;2024-02-16T10:06:58;4.82;;;2.30;;
55655;SDS011;41530;52.382;5.270;2024-02-16T10:09:26;4.20;;;2.13;;
55655;SDS011;41530;52.382;5.270;2024-02-16T10:11:55;4.38;;;2.47;;
55655;SDS011;41530;52.382;5.270;2024-02-16T10:14:23;7.72;;;2.90;;
55655;SDS011;41530;52.382;5.270;2024-02-16T10:17:04;4.35;;;2.20;;
55655;SDS011;41530;52.382;5.270;2024-02-16T10:19:32;6.60;;;2.42;;
55655;SDS011;41530;52.382;5.270;2024-02-16T10:22:08;3.60;;;2.00;;
55655;SDS011;41530;52.382;5.270;2024-02-16T10:24:40;5.82;;;2.40;;
55655;SDS011;41530;52.382;5.270;2024-02-16T10:27:15;5.90;;;2.42;;
55655;SDS011;41530;52.382;5.270;2024-02-16T10:29:48;4.30;;;2.33;;
55655;SDS011;41530;52.382;5.270;2024-02-16T10:32:20;7.20;;;2.70;;
55655;SDS011;41530;52.382;5.270;2024-02-16T10:34:47;12.68;;;2.58;;
55655;SDS011;41530;52.382;5.270;2024-02-16T10:37:16;5.75;;;2.50;;
55655;SDS011;41530;52.382;5.270;2024-02-16T10:39:43;3.70;;;1.95;;
55655;SDS011;41530;52.382;5.270;2024-02-16T10:42:11;4.57;;;2.47;;
55655;SDS011;41530;52.382;5.270;2024-02-16T10:44:40;3.47;;;1.98;;
55655;SDS011;41530;52.382;5.270;2024-02-16T10:47:09;5.32;;;2.30;;
55655;SDS011;41530;52.382;5.270;2024-02-16T10:49:36;3.33;;;2.22;;
55655;SDS011;41530;52.382;5.270;2024-02-16T10:52:04;4.88;;;2.30;;
55655;SDS011;41530;52.382;5.270;2024-02-16T10:54:32;6.70;;;2.30;;
55655;SDS011;41530;52.382;5.270;2024-02-16T10:57:00;3.15;;;2.08;;
55655;SDS011;41530;52.382;5.270;2024-02-16T10:59:27;4.60;;;2.20;;
55655;SDS011;41530;52.382;5.270;2024-02-16T11:02:05;4.43;;;2.15;;
55655;SDS011;41530;52.382;5.270;2024-02-16T11:04:39;3.50;;;2.03;;
55655;SDS011;41530;52.382;5.270;2024-02-16T11:07:16;3.70;;;1.77;;
55655;SDS011;41530;52.382;5.270;2024-02-16T11:09:44;4.53;;;1.70;;
55655;SDS011;41530;52.382;5.270;2024-02-16T11:12:12;3.83;;;1.70;;
55655;SDS011;41530;52.382;5.270;2024-02-16T11:14:43;4.35;;;1.95;;
55655;SDS011;41530;52.382;5.270;2024-02-16T11:17:15;3.70;;;2.13;;
55655;SDS011;41530;52.382;5.270;2024-02-16T11:19:46;7.32;;;1.75;;
55655;SDS011;41530;52.382;5.270;2024-02-16T11:22:20;2.95;;;1.80;;
55655;SDS011;41530;52.382;5.270;2024-02-16T11:24:48;3.38;;;1.88;;
55655;SDS011;41530;52.382;5.270;2024-02-16T11:27:16;3.20;;;1.88;;
55655;SDS011;41530;52.382;5.270;2024-02-16T11:29:48;2.70;;;1.77;;
55655;SDS011;41530;52.382;5.270;2024-02-16T11:32:15;4.05;;;1.73;;
55655;SDS011;41530;52.382;5.270;2024-02-16T11:34:44;3.10;;;1.83;;
55655;SDS011;41530;52.382;5.270;2024-02-16T11:37:12;2.88;;;1.77;;
55655;SDS011;41530;52.382;5.270;2024-02-16T11:39:39;2.75;;;1.77;;
55655;SDS011;41530;52.382;5.270;2024-02-16T11:42:08;5.65;;;1.90;;
55655;SDS011;41530;52.382;5.270;2024-02-16T11:44:40;2.83;;;1.77;;
55655;SDS011;41530;52.382;5.270;2024-02-16T11:47:18;3.45;;;1.90;;
55655;SDS011;41530;52.382;5.270;2024-02-16T11:49:46;3.88;;;2.10;;
55655;SDS011;41530;52.382;5.270;2024-02-16T11:52:13;2.30;;;1.63;;
55655;SDS011;41530;52.382;5.270;2024-02-16T11:54:43;6.63;;;2.03;;
55655;SDS011;41530;52.382;5.270;2024-02-16T11:57:10;4.55;;;1.65;;
55655;SDS011;41530;52.382;5.270;2024-02-16T11:59:38;2.80;;;1.50;;
55655;SDS011;41530;52.382;5.270;2024-02-16T12:02:06;3.70;;;1.65;;
55655;SDS011;41530;52.382;5.270;2024-02-16T12:04:33;4.35;;;1.85;;
55655;SDS011;41530;52.382;5.270;2024-02-16T12:07:09;2.42;;;1.70;;
55655;SDS011;41530;52.382;5.270;2024-02-16T12:09:39;2.70;;;1.80;;
55655;SDS011;41530;52.382;5.270;2024-02-16T12:12:06;3.03;;;1.88;;
55655;SDS011;41530;52.382;5.270;2024-02-16T12:14:33;2.95;;;1.70;;
55655;SDS011;41530;52.382;5.270;2024-02-16T12:17:01;4.75;;;1.50;;
55655;SDS011;41530;52.382;5.270;2024-02-16T12:19:28;4.93;;;1.90;;
55655;SDS011;41530;52.382;5.270;2024-02-16T12:21:55;5.07;;;1.80;;
55655;SDS011;41530;52.382;5.270;2024-02-16T12:24:25;2.50;;;1.60;;
55655;SDS011;41530;52.382;5.270;2024-02-16T12:26:53;3.00;;;1.60;;
55655;SDS011;41530;52.382;5.270;2024-02-16T12:29:20;2.47;;;1.50;;
55655;SDS011;41530;52.382;5.270;2024-02-16T12:31:47;3.00;;;1.58;;
55655;SDS011;41530;52.382;5.270;2024-02-16T12:34:15;1.98;;;1.20;;
55655;SDS011;41530;52.382;5.270;2024-02-16T12:36:43;2.80;;;1.50;;
55655;SDS011;41530;52.382;5.270;2024-02-16T12:39:14;3.78;;;1.60;;
55655;SDS011;41530;52.382;5.270;2024-02-16T12:41:42;1.65;;;1.33;;
55655;SDS011;41530;52.382;5.270;2024-02-16T12:44:10;2.65;;;1.33;;
55655;SDS011;41530;52.382;5.270;2024-02-16T12:46:37;5.70;;;1.35;;
55655;SDS011;41530;52.382;5.270;2024-02-16T12:49:05;1.67;;;1.30;;
55655;SDS011;41530;52.382;5.270;2024-02-16T12:51:32;2.88;;;1.60;;
55655;SDS011;41530;52.382;5.270;2024-02-16T12:53:59;3.15;;;1.70;;
55655;SDS011;41530;52.382;5.270;2024-02-16T12:56:30;1.77;;;1.48;;
55655;SDS011;41530;52.382;5.270;2024-02-16T12:58:57;3.70;;;1.35;;
55655;SDS011;41530;52.382;5.270;2024-02-16T13:01:26;1.48;;;1.27;;
55655;SDS011;41530;52.382;5.270;2024-02-16T13:03:53;2.15;;;1.40;;
55655;SDS011;41530;52.382;5.270;2024-02-16T13:06:20;2.17;;;1.40;;
55655;SDS011;41530;52.382;5.270;2024-02-16T13:08:53;1.55;;;1.20;;
55655;SDS011;41530;52.382;5.270;2024-02-16T13:11:20;1.70;;;1.30;;
55655;SDS011;41530;52.382;5.270;2024-02-16T13:13:46;2.08;;;1.23;;
55655;SDS011;41530;52.382;5.270;2024-02-16T13:16:13;2.63;;;1.40;;
55655;SDS011;41530;52.382;5.270;2024-02-16T13:18:41;1.38;;;1.17;;
55655;SDS011;41530;52.382;5.270;2024-02-16T13:21:08;4.28;;;1.50;;
55655;SDS011;41530;52.382;5.270;2024-02-16T13:23:34;1.20;;;1.10;;
55655;SDS011;41530;52.382;5.270;2024-02-16T13:26:01;2.42;;;1.00;;
55655;SDS011;41530;52.382;5.270;2024-02-16T13:28:28;2.45;;;1.80;;
55655;SDS011;41530;52.382;5.270;2024-02-16T13:30:55;1.55;;;1.10;;
55655;SDS011;41530;52.382;5.270;2024-02-16T13:33:22;2.03;;;1.33;;
55655;SDS011;41530;52.382;5.270;2024-02-16T13:35:48;1.88;;;1.27;;
55655;SDS011;41530;52.382;5.270;2024-02-16T13:38:15;1.10;;;1.00;;
55655;SDS011;41530;52.382;5.270;2024-02-16T13:40:42;1.52;;;1.20;;
55655;SDS011;41530;52.382;5.270;2024-02-16T13:43:09;1.45;;;1.02;;
55655;SDS011;41530;52.382;5.270;2024-02-16T13:45:49;3.40;;;1.20;;
55655;SDS011;41530;52.382;5.270;2024-02-16T13:48:17;1.75;;;1.25;;
55655;SDS011;41530;52.382;5.270;2024-02-16T13:50:45;2.45;;;1.40;;
55655;SDS011;41530;52.382;5.270;2024-02-16T13:53:13;3.72;;;1.45;;
55655;SDS011;41530;52.382;5.270;2024-02-16T13:55:46;1.95;;;1.38;;
55655;SDS011;41530;52.382;5.270;2024-02-16T13:58:12;1.45;;;1.08;;
55655;SDS011;41530;52.382;5.270;2024-02-16T14:00:39;3.30;;;1.50;;
55655;SDS011;41530;52.382;5.270;2024-02-16T14:03:10;1.85;;;1.50;;
55655;SDS011;41530;52.382;5.270;2024-02-16T14:05:40;2.85;;;1.30;;
55655;SDS011;41530;52.382;5.270;2024-02-16T14:08:08;2.30;;;1.52;;
55655;SDS011;41530;52.382;5.270;2024-02-16T14:10:37;1.58;;;1.20;;
55655;SDS011;41530;52.382;5.270;2024-02-16T14:13:04;1.45;;;1.13;;
55655;SDS011;41530;52.382;5.270;2024-02-16T14:15:31;1.83;;;1.30;;
55655;SDS011;41530;52.382;5.270;2024-02-16T14:17:59;2.42;;;1.30;;
55655;SDS011;41530;52.382;5.270;2024-02-16T14:20:36;3.30;;;1.08;;
55655;SDS011;41530;52.382;5.270;2024-02-16T14:23:05;3.83;;;1.63;;
55655;SDS011;41530;52.382;5.270;2024-02-16T14:25:34;2.00;;;1.50;;
55655;SDS011;41530;52.382;5.270;2024-02-16T14:28:09;3.35;;;1.50;;
55655;SDS011;41530;52.382;5.270;2024-02-16T14:30:36;1.63;;;1.20;;
55655;SDS011;41530;52.382;5.270;2024-02-16T14:33:02;1.70;;;1.40;;
55655;SDS011;41530;52.382;5.270;2024-02-16T14:35:31;2.03;;;1.25;;
55655;SDS011;41530;52.382;5.270;2024-02-16T14:38:03;3.30;;;1.50;;
55655;SDS011;41530;52.382;5.270;2024-02-16T14:40:31;4.43;;;1.70;;
55655;SDS011;41530;52.382;5.270;2024-02-16T14:42:59;3.50;;;1.50;;
55655;SDS011;41530;52.382;5.270;2024-02-16T14:45:26;3.78;;;1.60;;
55655;SDS011;41530;52.382;5.270;2024-02-16T14:47:52;1.67;;;1.35;;
55655;SDS011;41530;52.382;5.270;2024-02-16T14:50:19;2.75;;;1.50;;
55655;SDS011;41530;52.382;5.270;2024-02-16T14:52:49;5.50;;;1.50;;